sensor_id;sensor_type;location;lat;lon;timestamp;pressure;altitude;pressure_sealevel;temperature;humidity
49459;BME280;35354;51.296;16.924;2023-03-03T00:01:58;100094.03;;;1.70;100.00
49459;BME280;35354;51.296;16.924;2023-03-03T00:04:23;100078.66;;;1.63;100.00
49459;BME280;35354;51.296;16.924;2023-03-03T00:06:49;100108.56;;;1.74;100.00
49459;BME280;35354;51.296;16.924;2023-03-03T00:09:14;100105.13;;;1.75;100.00
49459;BME280;35354;51.296;16.924;2023-03-03T00:11:39;100085.47;;;1.70;100.00
49459;BME280;35354;51.296;16.924;2023-03-03T00:14:17;100062.41;;;1.55;100.00
49459;BME280;35354;51.296;16.924;2023-03-03T00:16:45;100058.16;;;1.43;100.00
49459;BME280;35354;51.296;16.924;2023-03-03T00:19:19;100083.81;;;1.55;100.00
49459;BME280;35354;51.296;16.924;2023-03-03T00:21:46;100076.13;;;1.54;100.00
49459;BME280;35354;51.296;16.924;2023-03-03T00:26:43;100059.03;;;1.43;100.00
49459;BME280;35354;51.296;16.924;2023-03-03T00:29:29;100096.66;;;1.49;100.00
49459;BME280;35354;51.296;16.924;2023-03-03T00:34:36;100068.44;;;1.44;100.00
49459;BME280;35354;51.296;16.924;2023-03-03T00:37:02;100083.00;;;1.30;100.00
49459;BME280;35354;51.296;16.924;2023-03-03T00:39:32;100096.66;;;1.46;100.00
49459;BME280;35354;51.296;16.924;2023-03-03T00:42:00;100060.78;;;1.32;100.00
49459;BME280;35354;51.296;16.924;2023-03-03T00:44:38;100090.66;;;1.56;100.00
49459;BME280;35354;51.296;16.924;2023-03-03T00:50:27;100092.44;;;1.22;100.00
49459;BME280;35354;51.296;16.924;2023-03-03T00:53:03;100092.41;;;1.33;100.00
49459;BME280;35354;51.296;16.924;2023-03-03T00:55:30;100055.66;;;1.29;100.00
49459;BME280;35354;51.296;16.924;2023-03-03T00:57:56;100045.41;;;1.17;100.00
49459;BME280;35354;51.296;16.924;2023-03-03T01:00:21;100069.28;;;1.42;100.00
49459;BME280;35354;51.296;16.924;2023-03-03T01:02:47;100022.34;;;1.09;100.00
49459;BME280;35354;51.296;16.924;2023-03-03T01:05:15;100066.75;;;1.37;100.00
49459;BME280;35354;51.296;16.924;2023-03-03T01:07:40;100037.72;;;1.20;100.00
49459;BME280;35354;51.296;16.924;2023-03-03T01:10:06;100059.09;;;1.20;100.00
49459;BME280;35354;51.296;16.924;2023-03-03T01:12:32;100020.66;;;0.90;100.00
49459;BME280;35354;51.296;16.924;2023-03-03T01:14:57;100020.66;;;1.10;100.00
49459;BME280;35354;51.296;16.924;2023-03-03T01:17:23;100047.13;;;1.24;100.00
49459;BME280;35354;51.296;16.924;2023-03-03T01:19:48;100012.06;;;1.17;100.00
49459;BME280;35354;51.296;16.924;2023-03-03T01:22:14;100042.75;;;1.46;100.00
49459;BME280;35354;51.296;16.924;2023-03-03T01:24:39;100007.72;;;1.40;100.00
49459;BME280;35354;51.296;16.924;2023-03-03T01:27:05;100006.00;;;1.44;100.00
49459;BME280;35354;51.296;16.924;2023-03-03T01:29:30;100000.00;;;1.43;100.00
49459;BME280;35354;51.296;16.924;2023-03-03T01:31:55;100028.16;;;1.62;100.00
49459;BME280;35354;51.296;16.924;2023-03-03T01:34:21;100002.53;;;1.53;100.00
49459;BME280;35354;51.296;16.924;2023-03-03T01:36:46;99990.53;;;1.56;100.00
49459;BME280;35354;51.296;16.924;2023-03-03T01:39:11;99994.81;;;1.51;100.00
49459;BME280;35354;51.296;16.924;2023-03-03T01:41:37;100018.75;;;1.61;100.00
49459;BME280;35354;51.296;16.924;2023-03-03T01:44:03;99993.94;;;1.55;100.00
49459;BME280;35354;51.296;16.924;2023-03-03T01:51:54;99987.97;;;1.56;100.00
49459;BME280;35354;51.296;16.924;2023-03-03T01:54:39;100005.03;;;1.63;100.00
49459;BME280;35354;51.296;16.924;2023-03-03T01:57:14;99999.91;;;1.69;100.00
49459;BME280;35354;51.296;16.924;2023-03-03T01:59:45;99966.59;;;1.51;100.00
49459;BME280;35354;51.296;16.924;2023-03-03T02:02:11;99968.31;;;1.54;100.00
49459;BME280;35354;51.296;16.924;2023-03-03T02:04:38;99949.56;;;1.36;100.00
49459;BME280;35354;51.296;16.924;2023-03-03T02:07:09;99986.25;;;1.57;100.00
49459;BME280;35354;51.296;16.924;2023-03-03T02:12:15;99983.69;;;1.54;100.00
49459;BME280;35354;51.296;16.924;2023-03-03T02:14:41;100005.03;;;1.69;100.00
49459;BME280;35354;51.296;16.924;2023-03-03T02:17:06;100015.25;;;1.75;100.00
49459;BME280;35354;51.296;16.924;2023-03-03T02:22:14;100023.00;;;1.68;100.00
49459;BME280;35354;51.296;16.924;2023-03-03T02:24:48;99997.41;;;1.53;100.00
49459;BME280;35354;51.296;16.924;2023-03-03T02:27:15;99994.00;;;1.49;100.00
49459;BME280;35354;51.296;16.924;2023-03-03T02:29:41;99993.13;;;1.53;100.00
49459;BME280;35354;51.296;16.924;2023-03-03T02:32:06;99988.84;;;1.50;100.00
49459;BME280;35354;51.296;16.924;2023-03-03T02:34:44;99967.53;;;1.36;100.00
49459;BME280;35354;51.296;16.924;2023-03-03T02:37:10;100021.28;;;1.64;100.00
49459;BME280;35354;51.296;16.924;2023-03-03T02:39:36;100006.94;;;1.17;100.00
49459;BME280;35354;51.296;16.924;2023-03-03T02:42:06;100047.94;;;1.37;100.00
49459;BME280;35354;51.296;16.924;2023-03-03T02:44:33;100048.78;;;1.36;100.00
49459;BME280;35354;51.296;16.924;2023-03-03T02:46:58;100029.16;;;1.13;100.00
49459;BME280;35354;51.296;16.924;2023-03-03T02:49:26;100019.78;;;1.06;100.00
49459;BME280;35354;51.296;16.924;2023-03-03T02:51:53;100028.28;;;1.25;100.00
49459;BME280;35354;51.296;16.924;2023-03-03T02:54:20;100012.03;;;1.26;100.00
49459;BME280;35354;51.296;16.924;2023-03-03T02:56:46;100000.94;;;1.22;100.00
49459;BME280;35354;51.296;16.924;2023-03-03T02:59:12;100013.75;;;1.25;100.00
49459;BME280;35354;51.296;16.924;2023-03-03T03:01:37;100017.22;;;1.11;100.00
49459;BME280;35354;51.296;16.924;2023-03-03T03:04:12;100037.69;;;1.21;100.00
49459;BME280;35354;51.296;16.924;2023-03-03T03:06:38;100025.72;;;1.17;100.00
49459;BME280;35354;51.296;16.924;2023-03-03T03:09:05;100016.34;;;1.13;100.00
49459;BME280;35354;51.296;16.924;2023-03-03T03:11:31;100034.28;;;1.29;100.00
49459;BME280;35354;51.296;16.924;2023-03-03T03:13:56;100015.47;;;1.27;100.00
49459;BME280;35354;51.296;16.924;2023-03-03T03:16:22;99984.69;;;1.20;100.00
49459;BME280;35354;51.296;16.924;2023-03-03T03:18:47;100017.97;;;1.39;100.00
49459;BME280;35354;51.296;16.924;2023-03-03T03:21:14;100007.69;;;1.39;100.00
49459;BME280;35354;51.296;16.924;2023-03-03T03:23:40;99974.41;;;1.28;100.00
49459;BME280;35354;51.296;16.924;2023-03-03T03:26:06;99990.63;;;1.36;100.00
49459;BME280;35354;51.296;16.924;2023-03-03T03:28:32;99992.34;;;1.28;100.00
49459;BME280;35354;51.296;16.924;2023-03-03T03:30:57;99988.94;;;1.21;99.93
49459;BME280;35354;51.296;16.924;2023-03-03T03:33:23;99995.75;;;1.30;99.88
49459;BME280;35354;51.296;16.924;2023-03-03T03:35:49;100012.84;;;1.40;100.00
49459;BME280;35354;51.296;16.924;2023-03-03T03:38:15;99993.22;;;1.27;99.80
49459;BME280;35354;51.296;16.924;2023-03-03T03:40:41;100008.59;;;1.30;99.89
49459;BME280;35354;51.296;16.924;2023-03-03T03:43:06;100012.88;;;1.33;99.87
49459;BME280;35354;51.296;16.924;2023-03-03T03:45:32;99999.22;;;1.17;100.00
49459;BME280;35354;51.296;16.924;2023-03-03T03:47:58;100026.56;;;1.33;100.00
49459;BME280;35354;51.296;16.924;2023-03-03T03:50:23;100026.56;;;1.30;100.00
49459;BME280;35354;51.296;16.924;2023-03-03T03:52:49;100000.09;;;1.16;100.00
49459;BME280;35354;51.296;16.924;2023-03-03T03:55:14;100019.72;;;1.26;100.00
49459;BME280;35354;51.296;16.924;2023-03-03T03:57:40;100012.88;;;1.25;100.00
49459;BME280;35354;51.296;16.924;2023-03-03T04:00:07;99998.38;;;1.22;100.00
49459;BME280;35354;51.296;16.924;2023-03-03T04:02:33;100030.81;;;1.40;100.00
49459;BME280;35354;51.296;16.924;2023-03-03T04:04:59;100011.19;;;1.27;100.00
49459;BME280;35354;51.296;16.924;2023-03-03T04:07:24;100012.06;;;1.17;100.00
49459;BME280;35354;51.296;16.924;2023-03-03T04:09:49;100029.16;;;1.24;100.00
49459;BME280;35354;51.296;16.924;2023-03-03T04:12:15;100041.97;;;1.27;100.00
49459;BME280;35354;51.296;16.924;2023-03-03T04:14:40;100027.47;;;1.08;100.00
49459;BME280;35354;51.296;16.924;2023-03-03T04:17:05;100021.50;;;1.10;100.00
49459;BME280;35354;51.296;16.924;2023-03-03T04:19:31;100059.06;;;1.30;100.00
49459;BME280;35354;51.296;16.924;2023-03-03T04:21:56;100034.31;;;1.12;100.00
49459;BME280;35354;51.296;16.924;2023-03-03T04:24:21;100038.59;;;1.10;100.00
49459;BME280;35354;51.296;16.924;2023-03-03T04:26:47;100030.03;;;1.00;100.00
49459;BME280;35354;51.296;16.924;2023-03-03T04:29:12;100059.09;;;1.05;100.00
49459;BME280;35354;51.296;16.924;2023-03-03T04:31:37;100030.06;;;0.94;100.00
49459;BME280;35354;51.296;16.924;2023-03-03T04:34:03;100039.47;;;0.67;100.00
49459;BME280;35354;51.296;16.924;2023-03-03T04:36:28;100051.44;;;0.71;100.00
49459;BME280;35354;51.296;16.924;2023-03-03T04:38:54;100044.63;;;0.81;100.00
49459;BME280;35354;51.296;16.924;2023-03-03T04:41:19;100030.09;;;0.65;100.00
49459;BME280;35354;51.296;16.924;2023-03-03T04:43:45;100047.16;;;0.75;100.00
49459;BME280;35354;51.296;16.924;2023-03-03T04:46:10;100051.44;;;0.78;100.00
49459;BME280;35354;51.296;16.924;2023-03-03T04:48:35;100049.75;;;0.64;100.00
49459;BME280;35354;51.296;16.924;2023-03-03T04:51:01;100016.41;;;0.46;100.00
49459;BME280;35354;51.296;16.924;2023-03-03T04:53:26;100026.69;;;0.60;100.00
49459;BME280;35354;51.296;16.924;2023-03-03T04:55:52;100048.88;;;0.74;100.00
49459;BME280;35354;51.296;16.924;2023-03-03T04:58:18;100013.84;;;0.61;100.00
49459;BME280;35354;51.296;16.924;2023-03-03T05:00:52;100011.31;;;0.57;100.00
49459;BME280;35354;51.296;16.924;2023-03-03T05:03:18;100001.91;;;0.68;100.00
49459;BME280;35354;51.296;16.924;2023-03-03T05:05:45;100008.72;;;0.81;100.00
49459;BME280;35354;51.296;16.924;2023-03-03T05:08:10;100024.09;;;0.93;100.00
49459;BME280;35354;51.296;16.924;2023-03-03T05:10:36;100043.72;;;1.04;100.00
49459;BME280;35354;51.296;16.924;2023-03-03T05:13:01;100035.19;;;0.91;100.00
49459;BME280;35354;51.296;16.924;2023-03-03T05:15:27;100007.84;;;0.88;100.00
49459;BME280;35354;51.296;16.924;2023-03-03T05:17:52;100039.44;;;1.04;100.00
49459;BME280;35354;51.296;16.924;2023-03-03T05:20:22;100046.28;;;1.04;100.00
49459;BME280;35354;51.296;16.924;2023-03-03T05:22:48;100038.59;;;1.07;100.00
49459;BME280;35354;51.296;16.924;2023-03-03T05:25:13;100020.63;;;1.04;100.00
49459;BME280;35354;51.296;16.924;2023-03-03T05:27:38;100012.13;;;0.97;100.00
49459;BME280;35354;51.296;16.924;2023-03-03T05:30:04;100037.72;;;1.08;99.91
49459;BME280;35354;51.296;16.924;2023-03-03T05:32:30;100030.91;;;0.88;99.45
49459;BME280;35354;51.296;16.924;2023-03-03T05:34:56;99999.34;;;0.68;99.16
49459;BME280;35354;51.296;16.924;2023-03-03T05:37:21;100045.47;;;0.97;99.45
49459;BME280;35354;51.296;16.924;2023-03-03T05:39:48;100036.91;;;0.93;99.81
49459;BME280;35354;51.296;16.924;2023-03-03T05:42:14;100012.97;;;0.84;99.15
49459;BME280;35354;51.296;16.924;2023-03-03T05:44:39;100025.78;;;0.91;99.09
49459;BME280;35354;51.296;16.924;2023-03-03T05:47:04;100040.34;;;0.97;98.20
49459;BME280;35354;51.296;16.924;2023-03-03T05:49:30;100032.66;;;0.79;98.41
49459;BME280;35354;51.296;16.924;2023-03-03T05:51:55;100026.66;;;0.67;98.88
49459;BME280;35354;51.296;16.924;2023-03-03T05:54:20;100033.50;;;0.78;98.66
49459;BME280;35354;51.296;16.924;2023-03-03T05:56:46;100019.84;;;0.72;98.68
49459;BME280;35354;51.296;16.924;2023-03-03T05:59:11;100021.56;;;0.77;98.23
49459;BME280;35354;51.296;16.924;2023-03-03T06:01:36;100036.06;;;0.78;98.49
49459;BME280;35354;51.296;16.924;2023-03-03T06:04:02;100054.00;;;0.91;98.61
49459;BME280;35354;51.296;16.924;2023-03-03T06:06:27;100059.13;;;0.90;98.27
49459;BME280;35354;51.296;16.924;2023-03-03T06:08:53;100059.16;;;0.81;98.42
49459;BME280;35354;51.296;16.924;2023-03-03T06:11:18;100030.94;;;0.70;98.83
49459;BME280;35354;51.296;16.924;2023-03-03T06:13:44;100061.72;;;0.78;98.88
49459;BME280;35354;51.296;16.924;2023-03-03T06:16:09;100042.03;;;0.58;99.51
49459;BME280;35354;51.296;16.924;2023-03-03T06:18:35;100080.50;;;0.80;99.34
49459;BME280;35354;51.296;16.924;2023-03-03T06:21:00;100083.91;;;0.71;99.25
49459;BME280;35354;51.296;16.924;2023-03-03T06:23:25;100096.75;;;0.60;99.34
49459;BME280;35354;51.296;16.924;2023-03-03T06:25:51;100078.81;;;0.69;99.28
49459;BME280;35354;51.296;16.924;2023-03-03T06:28:17;100042.06;;;0.57;99.62
49459;BME280;35354;51.296;16.924;2023-03-03T06:30:42;100073.69;;;0.77;99.57
49459;BME280;35354;51.296;16.924;2023-03-03T06:33:08;100051.47;;;0.68;99.38
49459;BME280;35354;51.296;16.924;2023-03-03T06:35:33;100060.84;;;0.77;99.55
49459;BME280;35354;51.296;16.924;2023-03-03T06:37:58;100054.00;;;0.79;99.46
49459;BME280;35354;51.296;16.924;2023-03-03T06:40:24;100083.06;;;0.93;98.64
49459;BME280;35354;51.296;16.924;2023-03-03T06:42:49;100061.69;;;0.82;98.44
49459;BME280;35354;51.296;16.924;2023-03-03T06:45:15;100078.81;;;0.94;98.68
49459;BME280;35354;51.296;16.924;2023-03-03T06:47:40;100055.75;;;0.80;98.20
49459;BME280;35354;51.296;16.924;2023-03-03T06:50:06;100079.66;;;0.94;98.36
49459;BME280;35354;51.296;16.924;2023-03-03T06:52:32;100066.84;;;0.81;98.08
49459;BME280;35354;51.296;16.924;2023-03-03T06:54:59;100065.13;;;0.83;98.32
49459;BME280;35354;51.296;16.924;2023-03-03T06:59:54;100106.13;;;1.04;97.68
49459;BME280;35354;51.296;16.924;2023-03-03T07:02:21;100101.88;;;0.97;97.83
49459;BME280;35354;51.296;16.924;2023-03-03T07:04:46;100113.84;;;1.07;97.38
49459;BME280;35354;51.296;16.924;2023-03-03T07:07:24;100077.09;;;0.79;97.42
49459;BME280;35354;51.296;16.924;2023-03-03T07:09:52;100097.63;;;0.97;97.20
49459;BME280;35354;51.296;16.924;2023-03-03T07:12:21;100106.16;;;0.98;96.83
49459;BME280;35354;51.296;16.924;2023-03-03T07:15:23;100119.81;;;1.00;96.39
49459;BME280;35354;51.296;16.924;2023-03-03T07:17:49;100113.84;;;0.95;97.01
49459;BME280;35354;51.296;16.924;2023-03-03T07:20:31;100111.28;;;0.98;96.62
49459;BME280;35354;51.296;16.924;2023-03-03T07:22:59;100093.25;;;0.18;96.74
49459;BME280;35354;51.296;16.924;2023-03-03T07:25:31;100111.94;;;-0.10;99.82
49459;BME280;35354;51.296;16.924;2023-03-03T07:28:32;100130.66;;;-0.25;100.00
49459;BME280;35354;51.296;16.924;2023-03-03T07:30:58;100099.81;;;-0.49;100.00
49459;BME280;35354;51.296;16.924;2023-03-03T07:35:49;100086.91;;;-0.65;100.00
49459;BME280;35354;51.296;16.924;2023-03-03T07:38:36;100127.09;;;-0.53;100.00
49459;BME280;35354;51.296;16.924;2023-03-03T07:41:09;100097.97;;;-0.75;100.00
49459;BME280;35354;51.296;16.924;2023-03-03T07:43:42;100096.19;;;-0.82;100.00
49459;BME280;35354;51.296;16.924;2023-03-03T07:46:39;100133.16;;;-0.37;100.00
49459;BME280;35354;51.296;16.924;2023-03-03T07:49:22;100124.63;;;-0.36;100.00
49459;BME280;35354;51.296;16.924;2023-03-03T07:51:52;100093.75;;;-0.67;100.00
49459;BME280;35354;51.296;16.924;2023-03-03T07:54:38;100118.63;;;-0.41;100.00
49459;BME280;35354;51.296;16.924;2023-03-03T07:59:50;100073.22;;;-0.73;100.00
49459;BME280;35354;51.296;16.924;2023-03-03T08:02:34;100130.59;;;-0.36;100.00
49459;BME280;35354;51.296;16.924;2023-03-03T08:07:45;100118.63;;;-0.35;100.00
49459;BME280;35354;51.296;16.924;2023-03-03T08:10:52;100117.78;;;-0.36;100.00
49459;BME280;35354;51.296;16.924;2023-03-03T08:13:34;100078.56;;;-0.26;100.00
49459;BME280;35354;51.296;16.924;2023-03-03T08:18:46;100115.22;;;-0.37;100.00
49459;BME280;35354;51.296;16.924;2023-03-03T08:23:38;100084.50;;;-0.34;100.00
49459;BME280;35354;51.296;16.924;2023-03-03T08:26:03;100061.31;;;-0.71;100.00
49459;BME280;35354;51.296;16.924;2023-03-03T08:28:28;100117.94;;;-0.04;100.00
49459;BME280;35354;51.296;16.924;2023-03-03T08:30:54;100118.78;;;-0.08;100.00
49459;BME280;35354;51.296;16.924;2023-03-03T08:33:19;100114.44;;;-0.22;100.00
49459;BME280;35354;51.296;16.924;2023-03-03T08:35:45;100085.34;;;-0.38;100.00
49459;BME280;35354;51.296;16.924;2023-03-03T08:38:13;100077.84;;;0.03;100.00
49459;BME280;35354;51.296;16.924;2023-03-03T08:40:39;100083.75;;;-0.15;100.00
49459;BME280;35354;51.296;16.924;2023-03-03T08:43:05;100121.31;;;-0.14;100.00
49459;BME280;35354;51.296;16.924;2023-03-03T08:45:32;100126.56;;;0.18;100.00
49459;BME280;35354;51.296;16.924;2023-03-03T08:47:58;100116.38;;;0.38;100.00
49459;BME280;35354;51.296;16.924;2023-03-03T08:50:24;100105.97;;;-0.06;100.00
49459;BME280;35354;51.296;16.924;2023-03-03T08:52:51;100112.75;;;-0.14;100.00
49459;BME280;35354;51.296;16.924;2023-03-03T08:55:17;100130.84;;;0.32;100.00
49459;BME280;35354;51.296;16.924;2023-03-03T08:57:42;100116.22;;;-0.02;100.00
49459;BME280;35354;51.296;16.924;2023-03-03T09:00:11;100142.69;;;-0.04;100.00
49459;BME280;35354;51.296;16.924;2023-03-03T09:02:38;100140.19;;;0.16;100.00
49459;BME280;35354;51.296;16.924;2023-03-03T09:05:04;100129.09;;;0.20;100.00
49459;BME280;35354;51.296;16.924;2023-03-03T09:07:29;100133.28;;;-0.01;100.00
49459;BME280;35354;51.296;16.924;2023-03-03T09:09:54;100118.75;;;-0.15;100.00
49459;BME280;35354;51.296;16.924;2023-03-03T09:12:49;100144.50;;;0.32;100.00
49459;BME280;35354;51.296;16.924;2023-03-03T09:17:46;100150.34;;;-0.07;100.00
49459;BME280;35354;51.296;16.924;2023-03-03T09:20:36;100124.00;;;0.24;100.00
49459;BME280;35354;51.296;16.924;2023-03-03T09:28:59;100128.28;;;0.29;100.00
49459;BME280;35354;51.296;16.924;2023-03-03T09:31:38;100139.31;;;0.08;100.00
49459;BME280;35354;51.296;16.924;2023-03-03T09:34:17;100147.00;;;0.08;100.00
49459;BME280;35354;51.296;16.924;2023-03-03T09:36:43;100142.00;;;0.52;100.00
49459;BME280;35354;51.296;16.924;2023-03-03T09:39:29;100154.78;;;0.35;100.00
49459;BME280;35354;51.296;16.924;2023-03-03T09:42:19;100161.53;;;0.21;100.00
49459;BME280;35354;51.296;16.924;2023-03-03T10:07:29;100152.34;;;1.06;100.00
49459;BME280;35354;51.296;16.924;2023-03-03T10:21:29;100069.41;;;0.97;100.00
49459;BME280;35354;51.296;16.924;2023-03-03T10:24:08;100128.38;;;0.81;100.00
49459;BME280;35354;51.296;16.924;2023-03-03T10:40:24;100149.72;;;1.41;100.00
49459;BME280;35354;51.296;16.924;2023-03-03T10:48:40;100140.38;;;0.97;100.00
49459;BME280;35354;51.296;16.924;2023-03-03T10:51:31;100139.47;;;1.25;100.00
49459;BME280;35354;51.296;16.924;2023-03-03T10:57:03;100100.84;;;1.79;96.42
49459;BME280;35354;51.296;16.924;2023-03-03T11:02:20;100134.34;;;1.33;97.17
49459;BME280;35354;51.296;16.924;2023-03-03T11:07:22;100126.53;;;1.68;98.28
49459;BME280;35354;51.296;16.924;2023-03-03T11:23:54;100094.00;;;1.78;97.23
49459;BME280;35354;51.296;16.924;2023-03-03T11:34:50;100062.50;;;1.21;97.57
49459;BME280;35354;51.296;16.924;2023-03-03T11:37:40;100113.63;;;1.93;96.42
49459;BME280;35354;51.296;16.924;2023-03-03T11:40:19;100101.53;;;2.19;95.01
49459;BME280;35354;51.296;16.924;2023-03-03T11:45:42;100080.34;;;1.65;94.78
49459;BME280;35354;51.296;16.924;2023-03-03T11:48:41;100111.22;;;1.42;96.44
49459;BME280;35354;51.296;16.924;2023-03-03T11:51:16;100081.25;;;1.52;97.15
49459;BME280;35354;51.296;16.924;2023-03-03T11:53:58;100118.72;;;2.04;96.35
49459;BME280;35354;51.296;16.924;2023-03-03T11:56:41;100103.16;;;2.34;95.07
49459;BME280;35354;51.296;16.924;2023-03-03T12:02:13;100076.50;;;2.47;92.95
49459;BME280;35354;51.296;16.924;2023-03-03T12:05:05;100084.59;;;1.75;95.76
49459;BME280;35354;51.296;16.924;2023-03-03T12:08:17;100113.75;;;1.55;96.70
49459;BME280;35354;51.296;16.924;2023-03-03T12:13:29;100104.94;;;2.24;95.26
49459;BME280;35354;51.296;16.924;2023-03-03T12:19:06;100099.56;;;2.58;93.33
49459;BME280;35354;51.296;16.924;2023-03-03T12:24:36;100098.25;;;1.81;95.23
49459;BME280;35354;51.296;16.924;2023-03-03T12:27:10;100092.34;;;1.63;95.88
49459;BME280;35354;51.296;16.924;2023-03-03T12:32:45;100065.00;;;1.53;97.01
49459;BME280;35354;51.296;16.924;2023-03-03T12:35:19;100086.41;;;1.44;97.09
49459;BME280;35354;51.296;16.924;2023-03-03T12:40:45;100050.25;;;1.99;95.52
49459;BME280;35354;51.296;16.924;2023-03-03T12:48:40;100075.47;;;2.68;92.11
49459;BME280;35354;51.296;16.924;2023-03-03T12:53:48;100082.00;;;1.83;94.13
49459;BME280;35354;51.296;16.924;2023-03-03T12:56:29;100082.81;;;1.88;95.37
49459;BME280;35354;51.296;16.924;2023-03-03T13:04:56;100039.66;;;2.47;92.50
49459;BME280;35354;51.296;16.924;2023-03-03T13:13:10;100077.72;;;1.79;94.50
49459;BME280;35354;51.296;16.924;2023-03-03T13:15:43;100058.78;;;2.03;94.07
49459;BME280;35354;51.296;16.924;2023-03-03T13:21:16;100067.03;;;2.57;91.45
49459;BME280;35354;51.296;16.924;2023-03-03T13:23:55;100065.19;;;2.71;90.53
49459;BME280;35354;51.296;16.924;2023-03-03T13:29:26;100071.63;;;2.08;92.59
49459;BME280;35354;51.296;16.924;2023-03-03T13:31:55;100078.56;;;1.84;94.02
49459;BME280;35354;51.296;16.924;2023-03-03T13:34:30;100079.22;;;2.23;93.72
49459;BME280;35354;51.296;16.924;2023-03-03T13:39:34;100040.50;;;2.49;91.48
49459;BME280;35354;51.296;16.924;2023-03-03T13:45:30;100064.97;;;2.96;89.51
49459;BME280;35354;51.296;16.924;2023-03-03T13:48:08;100066.91;;;2.71;89.31
49459;BME280;35354;51.296;16.924;2023-03-03T13:51:07;100063.84;;;2.20;91.41
49459;BME280;35354;51.296;16.924;2023-03-03T13:56:47;100055.00;;;2.59;91.76
49459;BME280;35354;51.296;16.924;2023-03-03T14:07:58;100020.44;;;2.89;88.76
49459;BME280;35354;51.296;16.924;2023-03-03T14:10:29;100030.72;;;2.91;88.47
49459;BME280;35354;51.296;16.924;2023-03-03T14:13:07;100024.75;;;2.87;88.19
49459;BME280;35354;51.296;16.924;2023-03-03T14:15:42;100052.53;;;2.42;89.85
49459;BME280;35354;51.296;16.924;2023-03-03T14:18:23;100051.06;;;2.08;91.36
49459;BME280;35354;51.296;16.924;2023-03-03T14:20:54;100021.91;;;2.12;92.44
49459;BME280;35354;51.296;16.924;2023-03-03T14:23:47;100047.25;;;2.61;90.69
49459;BME280;35354;51.296;16.924;2023-03-03T14:26:14;100015.53;;;2.63;89.75
49459;BME280;35354;51.296;16.924;2023-03-03T14:28:46;100048.75;;;2.88;89.50
49459;BME280;35354;51.296;16.924;2023-03-03T14:31:24;100047.00;;;2.90;88.81
49459;BME280;35354;51.296;16.924;2023-03-03T14:34:00;100039.19;;;2.99;88.80
49459;BME280;35354;51.296;16.924;2023-03-03T14:36:30;100036.59;;;3.02;88.49
49459;BME280;35354;51.296;16.924;2023-03-03T14:38:56;100018.66;;;2.94;88.37
49459;BME280;35354;51.296;16.924;2023-03-03T14:41:35;100007.56;;;2.91;88.31
49459;BME280;35354;51.296;16.924;2023-03-03T14:44:22;100017.88;;;2.91;87.94
49459;BME280;35354;51.296;16.924;2023-03-03T14:47:15;100030.34;;;2.29;90.43
49459;BME280;35354;51.296;16.924;2023-03-03T14:49:42;100025.44;;;1.95;91.91
49459;BME280;35354;51.296;16.924;2023-03-03T14:54:41;100003.81;;;2.27;91.66
49459;BME280;35354;51.296;16.924;2023-03-03T14:57:19;100012.19;;;2.52;90.50
49459;BME280;35354;51.296;16.924;2023-03-03T15:00:25;100021.53;;;2.64;89.65
49459;BME280;35354;51.296;16.924;2023-03-03T15:05:23;100011.97;;;2.77;89.09
49459;BME280;35354;51.296;16.924;2023-03-03T15:07:52;100010.22;;;2.83;89.09
49459;BME280;35354;51.296;16.924;2023-03-03T15:10:36;100013.59;;;2.88;89.04
49459;BME280;35354;51.296;16.924;2023-03-03T15:16:02;99993.13;;;2.76;88.55
49459;BME280;35354;51.296;16.924;2023-03-03T15:18:30;99988.91;;;2.70;88.46
49459;BME280;35354;51.296;16.924;2023-03-03T15:28:45;100005.06;;;2.83;89.23
49459;BME280;35354;51.296;16.924;2023-03-03T15:31:28;99999.91;;;2.83;88.78
49459;BME280;35354;51.296;16.924;2023-03-03T15:42:14;100004.69;;;2.23;92.43
49459;BME280;35354;51.296;16.924;2023-03-03T15:50:03;99975.44;;;2.39;91.03
49459;BME280;35354;51.296;16.924;2023-03-03T15:55:30;100000.25;;;2.45;90.67
49459;BME280;35354;51.296;16.924;2023-03-03T16:03:48;99989.97;;;2.45;90.57
49459;BME280;35354;51.296;16.924;2023-03-03T16:06:18;99995.91;;;2.52;90.63
49459;BME280;35354;51.296;16.924;2023-03-03T16:16:44;99993.34;;;2.53;90.71
49459;BME280;35354;51.296;16.924;2023-03-03T16:19:37;99989.09;;;2.46;91.06
49459;BME280;35354;51.296;16.924;2023-03-03T16:22:35;99989.06;;;2.50;91.16
49459;BME280;35354;51.296;16.924;2023-03-03T16:28:27;99984.09;;;2.32;91.59
49459;BME280;35354;51.296;16.924;2023-03-03T16:36:04;99984.91;;;2.31;91.68
49459;BME280;35354;51.296;16.924;2023-03-03T16:41:45;99973.09;;;2.12;91.67
49459;BME280;35354;51.296;16.924;2023-03-03T16:47:28;100001.16;;;2.38;91.44
49459;BME280;35354;51.296;16.924;2023-03-03T16:52:58;99981.59;;;2.18;91.41
49459;BME280;35354;51.296;16.924;2023-03-03T16:55:41;100011.53;;;2.29;91.97
49459;BME280;35354;51.296;16.924;2023-03-03T17:00:54;99974.00;;;2.03;92.24
49459;BME280;35354;51.296;16.924;2023-03-03T17:06:48;99994.41;;;2.23;91.82
49459;BME280;35354;51.296;16.924;2023-03-03T17:14:31;99979.16;;;1.97;92.19
49459;BME280;35354;51.296;16.924;2023-03-03T17:17:00;99975.72;;;2.01;92.38
49459;BME280;35354;51.296;16.924;2023-03-03T17:22:11;99999.63;;;2.15;92.56
49459;BME280;35354;51.296;16.924;2023-03-03T17:25:11;100004.75;;;2.14;92.45
49459;BME280;35354;51.296;16.924;2023-03-03T17:27:52;100007.28;;;2.18;92.75
49459;BME280;35354;51.296;16.924;2023-03-03T17:30:38;100003.00;;;2.19;92.94
49459;BME280;35354;51.296;16.924;2023-03-03T17:38:36;100006.41;;;2.25;92.61